createdAt,value
2019-04-10T00:00:51.241Z,15.40
2019-04-10T00:03:27.868Z,15.60
2019-04-10T00:05:48.440Z,15.57
2019-04-10T00:08:16.040Z,14.57
2019-04-10T00:10:43.856Z,17.10
2019-04-10T00:13:12.108Z,15.77
2019-04-10T00:15:40.309Z,14.57
2019-04-10T00:18:08.090Z,15.47
2019-04-10T00:20:36.482Z,16.57
2019-04-10T00:23:04.223Z,14.87
2019-04-10T00:25:32.822Z,16.00
2019-04-10T00:28:01.184Z,15.90
2019-04-10T00:30:29.143Z,16.57
2019-04-10T00:32:56.798Z,15.83
2019-04-10T00:35:25.495Z,16.00
2019-04-10T00:37:53.441Z,15.80
2019-04-10T00:40:21.439Z,16.57
2019-04-10T00:42:49.556Z,16.93
2019-04-10T00:45:17.500Z,17.37
2019-04-10T00:47:45.612Z,17.80
2019-04-10T00:50:13.392Z,19.73
2019-04-10T00:52:40.972Z,17.03
2019-04-10T00:55:08.624Z,16.93
2019-04-10T00:57:37.157Z,17.93
2019-04-10T01:00:05.159Z,18.67
2019-04-10T01:02:32.842Z,17.63
2019-04-10T01:05:00.551Z,18.97
2019-04-10T01:07:36.481Z,17.97
2019-04-10T01:09:57.669Z,18.53
2019-04-10T01:12:25.213Z,19.37
2019-04-10T01:14:53.823Z,19.13
2019-04-10T01:17:22.245Z,19.00
2019-04-10T01:19:50.287Z,19.03
2019-04-10T01:22:17.828Z,17.70
2019-04-10T01:24:46.099Z,20.17
2019-04-10T01:27:13.976Z,21.10
2019-04-10T01:29:41.908Z,20.73
2019-04-10T01:32:09.754Z,20.30
2019-04-10T01:34:37.948Z,21.43
2019-04-10T01:37:05.697Z,20.13
2019-04-10T01:39:33.313Z,21.83
2019-04-10T01:42:01.086Z,21.17
2019-04-10T01:44:28.932Z,19.63
2019-04-10T01:46:57.057Z,21.40
2019-04-10T01:49:25.982Z,21.33
2019-04-10T01:51:53.739Z,20.17
2019-04-10T01:54:21.287Z,21.77
2019-04-10T01:56:50.083Z,22.73
2019-04-10T01:59:19.690Z,21.23
2019-04-10T02:01:54.747Z,23.80
2019-04-10T02:04:22.779Z,23.20
2019-04-10T02:06:51.649Z,24.00
2019-04-10T02:09:19.403Z,22.87
2019-04-10T02:11:48.110Z,24.73
2019-04-10T02:14:16.222Z,23.97
2019-04-10T02:16:43.932Z,22.70
2019-04-10T02:19:12.207Z,25.57
2019-04-10T02:21:40.134Z,24.30
2019-04-10T02:24:07.865Z,24.37
2019-04-10T02:26:36.010Z,24.53
2019-04-10T02:29:03.897Z,24.47
2019-04-10T02:31:32.036Z,25.50
2019-04-10T02:34:01.523Z,24.20
2019-04-10T02:36:31.472Z,24.87
2019-04-10T02:39:13.795Z,24.33
2019-04-10T02:41:29.721Z,25.43
2019-04-10T02:43:58.063Z,23.73
2019-04-10T02:46:26.818Z,22.37
2019-04-10T02:48:55.659Z,24.77
2019-04-10T02:51:25.444Z,25.53
2019-04-10T02:53:55.515Z,23.90
2019-04-10T02:56:23.792Z,23.17
2019-04-10T02:58:52.203Z,24.93
2019-04-10T03:01:19.973Z,24.33
2019-04-10T03:03:47.674Z,23.97
2019-04-10T03:06:15.680Z,24.43
2019-04-10T03:08:58.713Z,23.43
2019-04-10T03:11:14.392Z,23.07
2019-04-10T03:13:42.974Z,22.23
2019-04-10T03:16:11.776Z,25.00
2019-04-10T03:18:39.719Z,23.87
2019-04-10T03:21:07.334Z,23.73
2019-04-10T03:23:35.684Z,23.57
2019-04-10T03:26:03.515Z,23.27
2019-04-10T03:28:32.103Z,23.70
2019-04-10T03:31:01.123Z,21.80
2019-04-10T03:33:45.407Z,24.30
2019-04-10T03:36:11.470Z,22.83
2019-04-10T03:38:53.946Z,21.67
2019-04-10T03:41:08.460Z,24.77
2019-04-10T03:43:36.246Z,23.60
2019-04-10T03:46:04.153Z,24.07
2019-04-10T03:48:31.736Z,23.67
2019-04-10T03:51:00.466Z,23.13
2019-04-10T03:53:28.410Z,23.57
2019-04-10T03:55:56.992Z,23.40
2019-04-10T03:58:25.158Z,22.80
2019-04-10T04:00:52.764Z,22.27
2019-04-10T04:03:20.504Z,24.03
2019-04-10T04:05:48.171Z,23.67
2019-04-10T04:08:15.707Z,24.97
2019-04-10T04:10:43.495Z,21.97
2019-04-10T04:13:11.170Z,22.70
2019-04-10T04:15:38.936Z,23.43
2019-04-10T04:18:06.788Z,23.30
2019-04-10T04:20:35.023Z,23.23
2019-04-10T04:23:03.461Z,20.67
2019-04-10T04:25:32.412Z,22.23
2019-04-10T04:28:00.459Z,23.50
2019-04-10T04:30:28.033Z,23.43
2019-04-10T04:32:56.022Z,22.13
2019-04-10T04:35:23.770Z,26.07
2019-04-10T04:37:52.582Z,24.10
2019-04-10T04:40:20.263Z,24.37
2019-04-10T04:42:47.978Z,24.63
2019-04-10T04:45:15.941Z,25.37
2019-04-10T04:47:43.901Z,26.10
2019-04-10T04:50:11.986Z,26.17
2019-04-10T04:52:41.108Z,26.03
2019-04-10T04:55:10.060Z,27.50
2019-04-10T04:57:40.753Z,25.83
2019-04-10T05:00:09.522Z,28.53
2019-04-10T05:02:37.355Z,33.00
2019-04-10T05:05:06.652Z,31.13
2019-04-10T05:07:35.487Z,33.27
2019-04-10T05:10:04.934Z,34.00
2019-04-10T05:12:33.855Z,37.10
2019-04-10T05:15:04.948Z,30.47
2019-04-10T05:17:45.287Z,37.40
2019-04-10T05:20:13.356Z,33.57
2019-04-10T05:22:41.682Z,33.73
2019-04-10T05:25:11.078Z,32.43
2019-04-10T05:27:39.241Z,32.27
2019-04-10T05:30:08.393Z,34.70
2019-04-10T05:32:36.175Z,34.40
2019-04-10T05:35:06.902Z,38.43
2019-04-10T05:37:34.066Z,35.13
2019-04-10T05:40:01.720Z,33.23
2019-04-10T05:42:29.663Z,34.57
2019-04-10T05:45:25.860Z,35.47
2019-04-10T05:48:49.013Z,34.93
2019-04-10T05:51:17.100Z,32.67
2019-04-10T10:30:31.506Z,48.47
2019-04-10T10:38:08.830Z,45.33
2019-04-10T10:40:36.688Z,47.83
2019-04-10T10:43:05.647Z,49.13
2019-04-10T10:45:40.092Z,48.60
2019-04-10T10:48:23.926Z,46.00
2019-04-10T10:52:31.326Z,44.73
2019-04-10T10:55:09.749Z,47.83
2019-04-10T10:57:37.485Z,52.57
2019-04-10T11:19:15.255Z,40.00
2019-04-10T11:22:22.458Z,41.87
2019-04-10T11:25:00.210Z,43.30
2019-04-10T11:28:05.982Z,51.90
2019-04-10T11:30:34.557Z,51.10
2019-04-10T11:33:02.657Z,40.67
2019-04-10T11:36:01.648Z,46.17
2019-04-10T11:38:51.900Z,41.73
2019-04-10T11:41:25.964Z,41.00
2019-04-10T11:44:00.200Z,44.60
2019-04-10T11:46:46.250Z,41.10
2019-04-10T11:49:15.607Z,42.60
2019-04-10T11:51:46.181Z,40.57
2019-04-10T11:54:15.369Z,39.47
2019-04-10T11:56:45.727Z,42.87
2019-04-10T11:59:17.675Z,41.73
2019-04-10T12:01:48.888Z,40.80
2019-04-10T12:04:19.994Z,43.50
2019-04-10T12:06:54.068Z,40.80
2019-04-10T12:10:08.070Z,43.67
2019-04-10T12:11:51.071Z,37.77
2019-04-10T12:14:21.666Z,45.53
2019-04-10T12:16:49.817Z,47.30
2019-04-10T12:19:17.780Z,42.53
2019-04-10T12:21:47.626Z,47.10
2019-04-10T12:24:18.296Z,41.23
2019-04-10T12:26:49.919Z,43.77
2019-04-10T12:29:20.849Z,44.07
2019-04-10T12:34:38.301Z,40.70
2019-04-10T12:40:42.521Z,40.00
2019-04-10T12:43:25.919Z,43.23
2019-04-10T12:45:54.778Z,43.50
2019-04-10T12:48:23.088Z,40.10
2019-04-10T12:50:50.967Z,46.37
2019-04-10T12:53:24.538Z,44.43
2019-04-10T12:55:53.790Z,42.83
2019-04-10T12:58:22.477Z,45.00
2019-04-10T13:00:52.148Z,47.97
2019-04-10T13:03:20.032Z,43.80
2019-04-10T13:05:49.343Z,48.50
2019-04-10T13:08:22.820Z,42.37
2019-04-10T13:10:47.650Z,47.20
2019-04-10T13:13:15.672Z,44.27
2019-04-10T13:24:59.595Z,49.07
2019-04-10T13:27:36.954Z,44.70
2019-04-10T13:29:57.441Z,42.73
2019-04-10T13:32:25.573Z,42.70
2019-04-10T13:34:53.549Z,45.70
2019-04-10T13:37:21.525Z,43.47
2019-04-10T13:39:49.591Z,44.37
2019-04-10T13:42:17.412Z,45.83
2019-04-10T13:44:45.252Z,51.37
2019-04-10T13:47:13.388Z,53.00
2019-04-10T13:49:44.206Z,51.40
2019-04-10T13:52:12.440Z,47.17
2019-04-10T13:54:44.209Z,53.77
2019-04-10T13:57:12.583Z,48.70
2019-04-10T13:59:41.459Z,47.90
2019-04-10T14:02:15.345Z,48.47
2019-04-10T14:06:03.284Z,47.80
2019-04-10T14:08:42.329Z,49.57
2019-04-10T14:11:11.108Z,44.40
2019-04-10T14:13:40.037Z,45.47
2019-04-10T14:16:08.566Z,44.03
2019-04-10T14:18:37.076Z,44.60
2019-04-10T14:21:15.499Z,46.90
2019-04-10T14:23:41.102Z,44.10
2019-04-10T14:26:43.729Z,45.10
2019-04-10T14:29:11.713Z,44.90
2019-04-10T14:31:43.212Z,41.80
2019-04-10T14:34:11.063Z,40.97
2019-04-10T14:36:38.905Z,40.63
2019-04-10T14:39:17.863Z,40.40
2019-04-10T14:41:44.212Z,42.53
2019-04-10T14:44:12.482Z,38.83
2019-04-10T14:46:40.494Z,39.73
2019-04-10T14:49:08.987Z,40.87
2019-04-10T14:51:36.713Z,41.50
2019-04-10T14:54:05.785Z,42.53
2019-04-10T14:56:34.465Z,39.90
2019-04-10T14:59:02.424Z,40.70
2019-04-10T15:01:30.326Z,39.97
2019-04-10T15:03:58.004Z,42.87
2019-04-10T15:06:26.616Z,43.17
2019-04-10T15:08:55.572Z,40.83
2019-04-10T15:11:24.646Z,40.53
2019-04-10T15:13:52.592Z,39.37
2019-04-10T15:16:27.247Z,39.00
2019-04-10T15:18:56.276Z,39.73
2019-04-10T15:21:31.238Z,39.87
2019-04-10T15:24:17.432Z,41.37
2019-04-10T15:27:30.717Z,39.80
2019-04-10T15:29:58.383Z,40.57
2019-04-10T15:32:26.592Z,41.90
2019-04-10T15:34:55.653Z,41.90
2019-04-10T15:37:33.364Z,43.23
2019-04-10T15:42:37.385Z,42.07
2019-04-10T15:45:07.260Z,40.30
2019-04-10T15:48:30.447Z,40.33
2019-04-10T15:51:17.990Z,38.87
2019-04-10T15:53:45.915Z,36.63
2019-04-10T15:56:13.833Z,37.50
2019-04-10T15:58:41.709Z,37.90
2019-04-10T16:01:14.360Z,37.63
2019-04-10T16:03:54.803Z,33.43
2019-04-10T16:06:25.089Z,37.27
2019-04-10T16:09:09.276Z,36.80
2019-04-10T16:11:46.929Z,38.63
2019-04-10T16:14:21.997Z,35.97
2019-04-10T16:16:52.921Z,30.97
2019-04-10T16:19:43.325Z,33.30
2019-04-10T16:22:37.446Z,33.87
2019-04-10T16:25:11.631Z,27.43
2019-04-10T16:27:39.405Z,25.33
2019-04-10T16:30:10.261Z,24.30
2019-04-10T16:32:37.894Z,23.77
2019-04-10T16:35:05.866Z,24.63
2019-04-10T16:37:33.632Z,24.60
2019-04-10T16:40:30.036Z,23.83
2019-04-10T16:43:01.466Z,23.43
2019-04-10T16:45:32.807Z,21.73
2019-04-10T16:48:00.812Z,22.20
2019-04-10T16:50:28.650Z,20.60
2019-04-10T16:52:57.804Z,21.63
2019-04-10T16:55:26.896Z,20.53
2019-04-10T17:01:00.302Z,22.33
2019-04-10T17:03:31.178Z,19.87
2019-04-10T17:05:58.798Z,20.40
2019-04-10T17:08:26.400Z,17.83
2019-04-10T17:10:53.981Z,20.23
2019-04-10T17:13:23.138Z,21.07
2019-04-10T17:15:51.788Z,20.93
2019-04-10T17:18:19.606Z,21.07
2019-04-10T17:20:47.395Z,21.13
2019-04-10T17:23:16.394Z,19.97
2019-04-10T17:25:44.827Z,19.57
2019-04-10T17:28:12.496Z,20.13
2019-04-10T17:30:40.325Z,20.70
2019-04-10T17:33:11.080Z,20.93
2019-04-10T17:35:40.002Z,19.30
2019-04-10T17:38:08.263Z,21.17
2019-04-10T17:40:44.336Z,20.30
2019-04-10T17:43:06.235Z,22.17
2019-04-10T17:56:17.970Z,22.83
2019-04-10T17:58:45.878Z,23.77
2019-04-10T18:01:17.328Z,20.93
2019-04-10T18:04:05.480Z,20.13
2019-04-10T18:06:35.238Z,20.13
2019-04-10T18:09:07.552Z,18.40
2019-04-10T18:11:37.087Z,19.47
2019-04-10T18:14:05.377Z,19.20
2019-04-10T18:16:36.647Z,19.00
2019-04-10T18:19:05.383Z,21.27
2019-04-10T18:21:35.035Z,21.23
2019-04-10T18:24:04.056Z,21.87
2019-04-10T18:26:32.106Z,20.87
2019-04-10T18:29:02.332Z,20.93
2019-04-10T18:31:30.119Z,20.03
2019-04-10T18:33:58.700Z,20.77
2019-04-10T18:36:27.703Z,19.83
2019-04-10T18:38:55.702Z,20.00
2019-04-10T18:41:24.235Z,20.20
2019-04-10T18:43:52.869Z,21.30
2019-04-10T18:46:22.302Z,22.90
2019-04-10T18:48:53.090Z,21.37
2019-04-10T18:51:21.521Z,24.03
2019-04-10T18:54:01.727Z,22.93
2019-04-10T19:02:41.150Z,25.90
2019-04-10T19:05:16.809Z,33.70
2019-04-10T19:07:46.114Z,32.43
2019-04-10T19:10:15.653Z,29.63
2019-04-10T19:12:45.248Z,34.40
2019-04-10T19:15:14.800Z,33.77
2019-04-10T19:17:43.341Z,36.97
2019-04-10T19:20:11.390Z,31.97
2019-04-10T19:22:40.122Z,35.00
2019-04-10T19:25:08.591Z,31.43
2019-04-10T19:27:36.226Z,27.07
2019-04-10T19:30:08.358Z,29.40
2019-04-10T19:32:37.386Z,28.00
2019-04-10T19:35:07.981Z,29.83
2019-04-10T19:37:36.806Z,25.53
2019-04-10T20:59:01.517Z,27.30
2019-04-10T21:01:30.996Z,29.67
2019-04-10T21:04:07.252Z,31.03
2019-04-10T21:06:40.349Z,30.83
2019-04-10T21:09:09.578Z,26.20
2019-04-10T21:11:37.739Z,27.97
2019-04-10T21:14:05.629Z,29.17
2019-04-10T21:16:33.742Z,31.03
2019-04-10T21:19:02.378Z,30.40
2019-04-10T21:21:30.746Z,27.13
2019-04-10T21:23:58.637Z,26.80
2019-04-10T21:26:26.716Z,25.47
2019-04-10T21:28:55.795Z,26.93
